createdAt,value
2022-08-05T00:01:28.625Z,99969.84
2022-08-05T00:04:33.135Z,99975.88
2022-08-05T00:08:00.093Z,99975.88
2022-08-05T00:11:04.085Z,99971.75
2022-08-05T00:14:12.020Z,99975.44
2022-08-05T00:17:20.861Z,99970.03
2022-08-05T00:20:28.952Z,99971.88
2022-08-05T00:23:46.579Z,99969.59
2022-08-05T00:26:57.044Z,99969.69
2022-08-05T00:30:03.168Z,99971.22
2022-08-05T00:34:41.893Z,99967.94
2022-08-05T00:37:13.280Z,99966.69
2022-08-05T00:39:58.613Z,99969.09
2022-08-05T00:43:07.576Z,99978.50
2022-08-05T00:46:14.664Z,99969.16
2022-08-05T00:49:20.140Z,99962.19
2022-08-05T00:52:28.233Z,99977.00
2022-08-05T00:55:42.365Z,99982.19
2022-08-05T00:58:46.885Z,99975.44
2022-08-05T01:01:54.751Z,99966.94
2022-08-05T01:04:59.259Z,99980.16
2022-08-05T01:08:40.389Z,99981.97
2022-08-05T01:11:37.207Z,99976.03
2022-08-05T01:14:46.460Z,99969.28
2022-08-05T01:17:56.763Z,99972.69
2022-08-05T01:21:12.420Z,99978.91
2022-08-05T01:24:52.490Z,99966.19
2022-08-05T01:28:16.241Z,99977.63
2022-08-05T01:31:27.777Z,99975.06
2022-08-05T01:34:38.011Z,99966.25
2022-08-05T01:37:50.368Z,99959.25
2022-08-05T01:41:00.014Z,99962.13
2022-08-05T01:44:09.624Z,99961.56
2022-08-05T01:47:18.835Z,99964.44
2022-08-05T01:50:29.986Z,99955.38
2022-08-05T01:53:57.036Z,99947.09
2022-08-05T01:58:29.708Z,99957.44
2022-08-05T02:00:30.533Z,99956.19
2022-08-05T02:03:38.996Z,99949.72
2022-08-05T02:06:45.150Z,99948.66
2022-08-05T02:09:50.385Z,99954.88
2022-08-05T02:13:01.329Z,99950.50
2022-08-05T02:16:27.574Z,99952.28
2022-08-05T02:19:35.636Z,99949.94
2022-08-05T02:22:58.314Z,99946.59
2022-08-05T02:26:07.336Z,99952.56
2022-08-05T02:29:21.401Z,99947.38
2022-08-05T02:32:31.849Z,99950.97
2022-08-05T02:35:44.890Z,99954.34
2022-08-05T02:39:02.827Z,99943.50
2022-08-05T02:42:08.146Z,99948.13
2022-08-05T02:45:14.266Z,99936.72
2022-08-05T02:48:29.455Z,99938.28
2022-08-05T02:52:03.393Z,99946.03
2022-08-05T02:55:05.417Z,99943.72
2022-08-05T02:58:15.909Z,99953.28
2022-08-05T03:01:24.405Z,99933.59
2022-08-05T03:04:29.771Z,99948.06
2022-08-05T03:08:00.372Z,99952.72
2022-08-05T03:11:53.518Z,99959.97
2022-08-05T03:14:22.373Z,99964.63
2022-08-05T03:17:26.957Z,99968.22
2022-08-05T03:20:31.424Z,99965.88
2022-08-05T03:23:43.152Z,99965.84
2022-08-05T03:26:49.642Z,99970.72
2022-08-05T03:30:07.770Z,99977.41
2022-08-05T03:33:13.799Z,99983.38
2022-08-05T03:36:29.813Z,99986.19
2022-08-05T03:39:47.148Z,99987.19
2022-08-05T03:43:16.056Z,99990.28
2022-08-05T03:46:24.020Z,99991.31
2022-08-05T03:49:51.282Z,99986.66
2022-08-05T03:55:00.073Z,99978.38
2022-08-05T03:56:42.252Z,99992.06
2022-08-05T04:00:09.995Z,99982.56
2022-08-05T04:03:28.251Z,99982.84
2022-08-05T04:06:34.606Z,99990.59
2022-08-05T04:09:38.696Z,99991.09
2022-08-05T04:12:59.046Z,99991.09
2022-08-05T04:16:04.892Z,99995.50
2022-08-05T04:19:12.791Z,99999.59
2022-08-05T04:22:20.618Z,100002.19
2022-08-05T04:25:56.966Z,100003.47
2022-08-05T04:28:51.977Z,100007.84
2022-08-05T04:31:56.880Z,100005.78
2022-08-05T04:35:01.166Z,100002.69
2022-08-05T04:38:06.588Z,100047.72
2022-08-05T04:41:11.294Z,100076.16
2022-08-05T04:44:16.206Z,100115.34
2022-08-05T04:47:38.620Z,100104.19
2022-08-05T04:51:01.637Z,100082.19
2022-08-05T04:54:14.884Z,100092.88
2022-08-05T04:57:18.913Z,100104.81
2022-08-05T05:00:23.272Z,100106.31
2022-08-05T05:03:28.043Z,100103.22
2022-08-05T05:06:49.386Z,100119.22
2022-08-05T05:10:05.299Z,100119.00
2022-08-05T05:13:12.059Z,100126.72
2022-08-05T05:16:17.324Z,100141.19
2022-08-05T05:19:27.506Z,100138.13
2022-08-05T05:22:44.172Z,100142.53
2022-08-05T05:25:48.299Z,100148.69
2022-08-05T05:28:52.277Z,100154.56
2022-08-05T05:31:56.983Z,100147.34
2022-08-05T05:35:00.863Z,100152.50
2022-08-05T05:38:09.466Z,100149.97
2022-08-05T05:41:18.500Z,100149.47
2022-08-05T05:44:36.689Z,100134.97
2022-08-05T05:48:06.443Z,100123.91
2022-08-05T05:51:14.918Z,100118.56
2022-08-05T05:54:20.313Z,100120.78
2022-08-05T05:57:24.744Z,100111.00
2022-08-05T06:00:46.613Z,100093.72
2022-08-05T06:04:01.728Z,100100.81
2022-08-05T06:07:07.786Z,100103.78
2022-08-05T06:10:15.134Z,100098.91
2022-08-05T06:13:19.801Z,100097.13
2022-08-05T06:16:32.754Z,100116.09
2022-08-05T06:19:40.937Z,100118.16
2022-08-05T06:22:49.396Z,100116.06
2022-08-05T06:26:13.255Z,100114.50
2022-08-05T06:29:25.423Z,100100.97
2022-08-05T06:32:44.515Z,100099.88
2022-08-05T06:36:03.485Z,100086.41
2022-08-05T06:39:12.421Z,100114.00
2022-08-05T06:42:17.395Z,100101.84
2022-08-05T06:45:44.038Z,100076.53
2022-08-05T06:48:56.813Z,100112.25
2022-08-05T06:52:03.717Z,100137.63
2022-08-05T06:55:08.242Z,100143.84
2022-08-05T06:58:20.105Z,100153.22
2022-08-05T07:01:34.433Z,100171.06
2022-08-05T07:04:38.604Z,100165.94
2022-08-05T07:07:45.190Z,100158.16
2022-08-05T07:10:52.865Z,100167.44
2022-08-05T07:14:28.890Z,100167.72
2022-08-05T07:18:00.090Z,100178.41
2022-08-05T07:20:58.915Z,100187.00
2022-08-05T07:24:11.383Z,100204.19
2022-08-05T07:27:15.460Z,100212.97
2022-08-05T07:30:25.542Z,100219.72
2022-08-05T07:33:36.707Z,100223.09
2022-08-05T07:36:42.117Z,100235.56
2022-08-05T07:40:04.215Z,100239.50
2022-08-05T07:43:20.371Z,100238.53
2022-08-05T07:46:27.454Z,100232.81
2022-08-05T07:49:34.222Z,100232.31
2022-08-05T07:52:48.069Z,100242.44
2022-08-05T07:56:06.395Z,100245.28
2022-08-05T07:59:16.377Z,100248.41
2022-08-05T08:02:26.495Z,100251.00
2022-08-05T08:05:39.496Z,100248.69
2022-08-05T08:08:44.376Z,100258.53
2022-08-05T08:11:58.920Z,100278.00
2022-08-05T08:15:14.136Z,100265.72
2022-08-05T08:18:20.827Z,100272.78
2022-08-05T08:21:24.786Z,100283.19
2022-08-05T08:24:51.449Z,100278.72
2022-08-05T08:27:55.164Z,100279.97
2022-08-05T08:30:59.614Z,100270.84
2022-08-05T08:34:04.992Z,100262.91
2022-08-05T08:37:09.508Z,100290.09
2022-08-05T08:40:13.789Z,100283.06
2022-08-05T08:45:23.704Z,100265.28
2022-08-05T08:46:48.193Z,100251.09
2022-08-05T08:50:22.509Z,100233.38
2022-08-05T08:53:19.189Z,100207.78
2022-08-05T08:56:27.073Z,100198.97
2022-08-05T08:59:33.417Z,100207.31
2022-08-05T09:02:38.779Z,100223.91
2022-08-05T09:06:08.901Z,100233.06
2022-08-05T09:09:07.914Z,100223.06
2022-08-05T09:12:20.807Z,100213.09
2022-08-05T09:15:32.120Z,100216.28
2022-08-05T09:18:43.845Z,100203.22
2022-08-05T09:22:17.512Z,100198.72
2022-08-05T09:25:24.275Z,100177.53
2022-08-05T09:28:43.905Z,100162.69
2022-08-05T09:32:42.978Z,100168.44
2022-08-05T09:35:30.144Z,100180.16
2022-08-05T09:38:34.286Z,100185.97
2022-08-05T09:41:59.770Z,100189.09
2022-08-05T09:46:04.821Z,100190.69
2022-08-05T09:48:34.401Z,100192.44
2022-08-05T09:51:39.877Z,100184.59
2022-08-05T09:54:58.832Z,100191.88
2022-08-05T09:58:12.740Z,100196.91
2022-08-05T10:01:22.522Z,100201.28
2022-08-05T10:04:39.671Z,100209.25
2022-08-05T10:08:35.379Z,100226.13
2022-08-05T10:11:18.099Z,100224.00
2022-08-05T10:14:24.504Z,100217.22
2022-08-05T10:17:37.921Z,100225.19
2022-08-05T10:20:50.053Z,100208.88
2022-08-05T10:23:59.502Z,100210.25
2022-08-05T10:27:04.977Z,100197.53
2022-08-05T10:31:19.958Z,100210.13
2022-08-05T10:33:36.171Z,100229.50
2022-08-05T10:36:41.863Z,100224.16
2022-08-05T10:39:59.322Z,100208.97
2022-08-05T10:43:36.470Z,100203.78
2022-08-05T10:46:50.692Z,100206.75
2022-08-05T10:50:20.568Z,100200.91
2022-08-05T10:53:55.972Z,100202.25
2022-08-05T10:57:02.523Z,100214.59
2022-08-05T11:00:24.044Z,100200.47
2022-08-05T11:03:29.234Z,100207.19
2022-08-05T11:06:35.300Z,100201.13
2022-08-05T11:09:46.591Z,100193.13
2022-08-05T11:12:55.173Z,100192.06
2022-08-05T11:16:23.238Z,100184.00
2022-08-05T11:20:17.095Z,100186.50
2022-08-05T11:24:02.752Z,100177.03
2022-08-05T11:27:51.116Z,100169.06
2022-08-05T11:30:58.217Z,100167.16
2022-08-05T11:34:05.735Z,100175.47
2022-08-05T11:38:29.840Z,100162.94
2022-08-05T11:41:34.170Z,100168.19
2022-08-05T11:44:52.766Z,100168.75
2022-08-05T11:47:57.931Z,100162.94
2022-08-05T11:51:02.798Z,100154.22
2022-08-05T11:54:07.849Z,100162.81
2022-08-05T11:57:24.817Z,100168.72
2022-08-05T12:00:31.221Z,100142.72
2022-08-05T12:03:55.520Z,100151.25
2022-08-05T12:07:00.913Z,100149.53
2022-08-05T12:10:09.407Z,100140.63
2022-08-05T12:13:27.855Z,100138.19
2022-08-05T12:16:45.499Z,100142.63
2022-08-05T12:20:26.718Z,100141.53
2022-08-05T12:23:17.652Z,100132.22
2022-08-05T12:26:21.561Z,100134.72
2022-08-05T12:29:29.116Z,100144.66
2022-08-05T12:32:50.683Z,100129.97
2022-08-05T12:35:58.184Z,100132.97
2022-08-05T12:39:05.517Z,100139.13
2022-08-05T12:42:16.426Z,100149.78
2022-08-05T12:45:22.141Z,100144.41
2022-08-05T12:48:45.202Z,100161.03
2022-08-05T12:52:13.049Z,100147.44
2022-08-05T12:55:26.646Z,100151.34
2022-08-05T12:58:49.932Z,100158.00
2022-08-05T13:02:07.902Z,100155.69
2022-08-05T13:05:14.453Z,100157.28
2022-08-05T13:08:19.245Z,100160.31
2022-08-05T13:12:02.943Z,100153.72
2022-08-05T13:15:05.682Z,100159.91
2022-08-05T13:18:12.228Z,100154.25
2022-08-05T13:21:23.810Z,100145.19
2022-08-05T13:24:51.256Z,100145.94
2022-08-05T13:27:57.629Z,100142.09
2022-08-05T13:31:03.337Z,100147.47
2022-08-05T13:34:22.109Z,100158.84
2022-08-05T13:37:34.411Z,100165.84
2022-08-05T13:40:50.040Z,100154.63
2022-08-05T13:43:56.634Z,100147.47
2022-08-05T13:47:05.172Z,100149.22
2022-08-05T13:50:16.646Z,100147.75
2022-08-05T13:53:20.945Z,100151.69
2022-08-05T13:56:25.576Z,100160.16
2022-08-05T13:59:30.723Z,100151.44
2022-08-05T14:02:35.200Z,100156.50
2022-08-05T14:06:04.895Z,100149.88
2022-08-05T14:09:08.381Z,100152.69
2022-08-05T14:12:17.466Z,100161.13
2022-08-05T14:16:08.191Z,100160.53
2022-08-05T14:18:46.587Z,100173.25
2022-08-05T14:22:08.526Z,100166.03
2022-08-05T14:25:21.933Z,100165.06
2022-08-05T14:28:28.497Z,100160.22
2022-08-05T14:32:02.672Z,100158.66
2022-08-05T14:34:57.729Z,100156.16
2022-08-05T14:38:01.999Z,100151.19
2022-08-05T14:41:07.468Z,100146.66
2022-08-05T14:44:20.612Z,100156.91
2022-08-05T14:48:03.210Z,100159.06
2022-08-05T14:50:50.272Z,100167.47
2022-08-05T14:54:26.390Z,100165.06
2022-08-05T14:57:19.165Z,100175.91
2022-08-05T15:00:27.756Z,100180.25
2022-08-05T15:03:33.728Z,100177.22
2022-08-05T15:06:38.548Z,100186.19
2022-08-05T15:09:52.463Z,100185.75
2022-08-05T15:13:03.923Z,100182.38
2022-08-05T15:16:11.011Z,100191.78
2022-08-05T15:19:23.855Z,100196.50
2022-08-05T15:22:28.700Z,100205.50
2022-08-05T15:25:51.966Z,100241.81
2022-08-05T15:28:57.580Z,100259.50
2022-08-05T15:32:03.372Z,100275.72
2022-08-05T15:35:12.523Z,100291.19
2022-08-05T15:38:35.350Z,100306.34
2022-08-05T15:41:55.617Z,100312.47
2022-08-05T15:45:03.563Z,100315.13
2022-08-05T15:48:10.564Z,100333.56
2022-08-05T15:51:22.459Z,100348.13
2022-08-05T15:54:46.517Z,100357.13
2022-08-05T15:57:50.599Z,100364.38
2022-08-05T16:01:04.434Z,100396.56
2022-08-05T16:04:18.802Z,100384.50
2022-08-05T16:07:23.057Z,100403.84
2022-08-05T16:10:27.375Z,100409.38
2022-08-05T16:13:34.133Z,100410.75
2022-08-05T16:16:39.350Z,100412.69
2022-08-05T16:20:03.489Z,100434.66
2022-08-05T16:23:08.619Z,100445.81
2022-08-05T16:26:13.306Z,100453.94
2022-08-05T16:29:18.221Z,100465.91
2022-08-05T16:32:29.350Z,100454.72
2022-08-05T16:35:43.075Z,100471.44
2022-08-05T16:38:54.827Z,100474.09
2022-08-05T16:42:14.415Z,100477.13
2022-08-05T16:46:07.489Z,100486.50
2022-08-05T16:48:47.651Z,100497.94
2022-08-05T16:51:56.945Z,100496.34
2022-08-05T16:55:01.074Z,100509.00
2022-08-05T16:58:08.627Z,100525.41
2022-08-05T17:01:13.338Z,100520.03
2022-08-05T17:04:18.768Z,100516.94
2022-08-05T17:07:43.754Z,100517.31
2022-08-05T17:10:47.145Z,100527.34
2022-08-05T17:14:00.379Z,100522.75
2022-08-05T17:17:15.037Z,100536.00
2022-08-05T17:20:19.664Z,100521.88
2022-08-05T17:24:03.623Z,100529.53
2022-08-05T17:26:48.335Z,100532.81
2022-08-05T17:29:59.648Z,100540.91
2022-08-05T17:33:07.753Z,100548.84
2022-08-05T17:36:33.722Z,100568.47
2022-08-05T17:39:37.669Z,100556.38
2022-08-05T17:42:50.768Z,100567.34
2022-08-05T17:45:56.654Z,100575.31
2022-08-05T17:49:00.838Z,100577.91
2022-08-05T17:52:04.705Z,100569.72
2022-08-05T17:55:11.790Z,100598.09
2022-08-05T17:58:17.626Z,100588.69
2022-08-05T18:01:49.380Z,100597.66
2022-08-05T18:04:55.161Z,100600.75
2022-08-05T18:07:59.257Z,100593.94
2022-08-05T18:11:04.029Z,100574.41
2022-08-05T18:14:13.584Z,100579.13
2022-08-05T18:18:00.630Z,100601.91
2022-08-05T18:20:48.839Z,100616.81
2022-08-05T18:23:54.427Z,100633.63
2022-08-05T18:26:58.846Z,100619.97
2022-08-05T18:30:03.459Z,100619.41
2022-08-05T18:33:08.608Z,100627.38
2022-08-05T18:36:19.193Z,100632.84
2022-08-05T18:40:34.344Z,100644.28
2022-08-05T18:42:47.820Z,100647.16
2022-08-05T18:45:52.018Z,100649.41
2022-08-05T18:49:20.289Z,100644.44
2022-08-05T18:52:35.689Z,100644.91
2022-08-05T18:55:40.617Z,100654.19
2022-08-05T18:58:44.645Z,100671.22
2022-08-05T19:01:56.983Z,100675.47
2022-08-05T19:06:06.354Z,100693.13
2022-08-05T19:08:30.798Z,100693.69
2022-08-05T19:11:58.654Z,100701.63
2022-08-05T19:15:02.701Z,100707.59
2022-08-05T19:18:09.314Z,100718.25
2022-08-05T19:21:15.644Z,100723.41
2022-08-05T19:24:34.390Z,100727.00
2022-08-05T19:27:39.381Z,100732.06
2022-08-05T19:30:48.798Z,100743.38
2022-08-05T19:33:56.643Z,100750.66
2022-08-05T19:37:01.261Z,100762.56
2022-08-05T19:40:08.165Z,100758.78
2022-08-05T19:44:03.849Z,100738.28
2022-08-05T19:46:39.546Z,100763.50
2022-08-05T19:49:46.094Z,100759.34
2022-08-05T19:52:50.609Z,100750.31
2022-08-05T19:56:15.367Z,100790.84
2022-08-05T19:59:51.638Z,100795.28
2022-08-05T20:02:43.203Z,100800.88
2022-08-05T20:05:51.276Z,100797.75
2022-08-05T20:08:56.013Z,100786.44
2022-08-05T20:11:59.978Z,100782.31
2022-08-05T20:15:08.735Z,100793.59
2022-08-05T20:18:33.889Z,100806.13
2022-08-05T20:21:38.341Z,100808.53
2022-08-05T20:24:42.712Z,100806.97
2022-08-05T20:27:47.967Z,100806.38
2022-08-05T20:30:54.246Z,100830.78
2022-08-05T20:33:58.258Z,100852.56
2022-08-05T20:37:02.199Z,100827.66
2022-08-05T20:40:09.049Z,100843.34
2022-08-05T20:43:14.411Z,100850.25
2022-08-05T20:46:25.215Z,100861.63
2022-08-05T20:49:33.212Z,100874.75
2022-08-05T20:52:43.905Z,100872.59
2022-08-05T20:56:07.399Z,100861.34
2022-08-05T20:59:19.205Z,100869.94
2022-08-05T21:02:30.433Z,100886.91
2022-08-05T21:05:53.697Z,100886.91
2022-08-05T21:08:58.824Z,100879.59
2022-08-05T21:12:10.553Z,100884.53
2022-08-05T21:15:17.425Z,100872.28
2022-08-05T21:18:21.565Z,100856.63
2022-08-05T21:21:39.536Z,100854.25
2022-08-05T21:24:51.577Z,100853.88
2022-08-05T21:27:56.494Z,100869.53
2022-08-05T21:31:01.550Z,100877.47
2022-08-05T21:34:05.661Z,100873.91
2022-08-05T21:37:11.274Z,100884.81
2022-08-05T21:40:16.956Z,100888.00
2022-08-05T21:43:24.586Z,100885.25
2022-08-05T21:46:29.688Z,100900.69
2022-08-05T21:50:00.300Z,100898.09
2022-08-05T21:52:58.722Z,100894.53
2022-08-05T21:56:16.950Z,100887.22
2022-08-05T21:59:23.884Z,100862.94
2022-08-05T22:02:29.407Z,100858.56
2022-08-05T22:05:48.269Z,100861.94
2022-08-05T22:08:53.398Z,100861.94
2022-08-05T22:11:59.782Z,100875.41
2022-08-05T22:15:10.251Z,100889.66
2022-08-05T22:18:20.594Z,100903.31
2022-08-05T22:21:29.850Z,100910.03
2022-08-05T22:24:55.690Z,100902.91
2022-08-05T22:28:08.892Z,100927.84
2022-08-05T22:31:15.466Z,100943.28
2022-08-05T22:34:25.603Z,100948.03
2022-08-05T22:37:58.859Z,100953.19
2022-08-05T22:40:57.418Z,100941.09
2022-08-05T22:44:01.488Z,100945.25
2022-08-05T22:47:06.522Z,100950.78
2022-08-05T22:50:19.483Z,100965.63
2022-08-05T22:53:25.836Z,100973.34
2022-08-05T22:56:39.981Z,100961.84
2022-08-05T22:59:51.902Z,100950.81
2022-08-05T23:02:58.652Z,100950.19
2022-08-05T23:06:02.595Z,100952.97
2022-08-05T23:09:28.059Z,100948.22
2022-08-05T23:12:32.612Z,100949.00
2022-08-05T23:15:37.543Z,100954.34
2022-08-05T23:18:43.675Z,100951.00
2022-08-05T23:21:48.770Z,100956.94
2022-08-05T23:24:53.619Z,100964.06
2022-08-05T23:28:00.715Z,100972.38
2022-08-05T23:31:16.542Z,100972.38
2022-08-05T23:34:24.516Z,100984.44
2022-08-05T23:37:34.309Z,100992.97
2022-08-05T23:40:40.691Z,100981.88
2022-08-05T23:44:06.385Z,100983.28
2022-08-05T23:47:15.278Z,100983.69
2022-08-05T23:50:20.287Z,100999.69
2022-08-05T23:53:24.290Z,101007.38
2022-08-05T23:56:32.304Z,100992.34
